Time;durP1;ratioP1;P1;durP2;ratioP2;P2;SDS_P1;SDS_P2;PMS_P1;PMS_P2;Temp;Humidity;BMP_temperature;BMP_pressure;BME280_temperature;BME280_humidity;BME280_pressure;Samples;Min_cycle;Max_cycle;Signal;HPM_P1;HPM_P2
2021/07/17 00:00:53;;;;;;;20.88;18.62;;;;;;;23.04;100.00;100459.02;1714627;81;21011;-91
2021/07/17 00:03:20;;;;;;;21.40;19.00;;;;;;;23.04;100.00;100450.22;1720549;80;21494;-88
2021/07/17 00:05:47;;;;;;;21.33;18.95;;;;;;;23.06;100.00;100453.50;1713074;81;20981;-87
2021/07/17 00:08:15;;;;;;;20.12;18.17;;;;;;;23.08;100.00;100450.14;1715657;81;21015;-88
2021/07/17 00:10:48;;;;;;;22.05;18.23;;;;;;;23.07;100.00;100453.80;1744689;80;21095;-86
2021/07/17 00:13:18;;;;;;;23.40;19.12;;;;;;;23.04;100.00;100451.55;1745578;80;21056;-87
2021/07/17 00:15:47;;;;;;;21.23;19.05;;;;;;;22.97;100.00;100453.69;1718718;80;21082;-87
2021/07/17 00:18:17;;;;;;;20.77;18.35;;;;;;;22.88;100.00;100452.23;1748784;80;21096;-87
2021/07/17 00:20:46;;;;;;;19.62;17.62;;;;;;;22.81;100.00;100456.70;1725440;80;21023;-89
2021/07/17 00:23:14;;;;;;;20.25;18.30;;;;;;;22.76;100.00;100452.00;1752006;80;21795;-89
2021/07/17 00:25:43;;;;;;;20.40;18.40;;;;;;;22.73;100.00;100454.23;1725957;80;21118;-88
2021/07/17 00:28:11;;;;;;;22.10;18.75;;;;;;;22.71;100.00;100449.13;1720618;80;21149;-85
2021/07/17 00:30:38;;;;;;;21.25;19.05;;;;;;;22.73;100.00;100455.56;1746357;80;21487;-87
2021/07/17 00:33:05;;;;;;;21.55;18.87;;;;;;;22.69;100.00;100454.66;1716176;80;21158;-87
2021/07/17 00:35:33;;;;;;;19.37;17.57;;;;;;;22.66;100.00;100455.04;1723975;80;21467;-88
2021/07/17 00:38:00;;;;;;;20.65;18.65;;;;;;;22.63;100.00;100457.27;1775911;79;20986;-87
2021/07/17 00:40:27;;;;;;;21.97;19.98;;;;;;;22.61;100.00;100450.02;1752930;80;21005;-89
2021/07/17 00:42:54;;;;;;;21.73;18.92;;;;;;;22.62;100.00;100457.80;1752007;80;21519;-87
2021/07/17 00:45:23;;;;;;;21.52;19.27;;;;;;;22.66;100.00;100456.37;1778474;79;20990;-92
2021/07/17 00:47:50;;;;;;;21.12;19.05;;;;;;;22.71;100.00;100457.09;1778791;80;21086;-87
2021/07/17 00:50:21;;;;;;;21.90;18.55;;;;;;;22.74;100.00;100457.20;1753094;80;21093;-89
2021/07/17 00:52:48;;;;;;;22.07;18.82;;;;;;;22.75;100.00;100462.82;1748035;79;21191;-90
2021/07/17 00:55:15;;;;;;;19.52;17.55;;;;;;;22.73;100.00;100467.02;1729245;81;21147;-87
2021/07/17 00:57:46;;;;;;;18.98;17.17;;;;;;;22.69;100.00;100463.94;1718480;81;20916;-86
2021/07/17 01:00:16;;;;;;;19.75;17.65;;;;;;;22.65;100.00;100458.70;1722698;81;21410;-88
2021/07/17 01:02:58;;;;;;;20.17;18.12;;;;;;;22.61;100.00;100457.48;1721564;81;21555;-88
2021/07/17 01:05:25;;;;;;;19.02;17.02;;;;;;;22.59;100.00;100454.20;1718255;81;21020;-87
2021/07/17 01:07:52;;;;;;;29.20;19.48;;;;;;;22.57;100.00;100455.42;1728679;80;21059;-88
2021/07/17 01:10:22;;;;;;;22.17;18.32;;;;;;;22.55;100.00;100456.12;1725461;80;21142;-88
2021/07/17 01:12:51;;;;;;;;;;;;;;;22.52;100.00;100460.80;1748044;80;21138;-87
2021/07/17 01:15:20;;;;;;;26.62;18.57;;;;;;;22.50;100.00;100455.39;1739560;80;20167;-89
2021/07/17 01:17:48;;;;;;;34.20;20.43;;;;;;;22.50;100.00;100463.34;1725272;80;22344;-89
2021/07/17 01:20:22;;;;;;;23.87;21.37;;;;;;;22.50;100.00;100464.18;1747668;80;20992;-86
2021/07/17 01:22:51;;;;;;;31.25;20.43;;;;;;;22.50;100.00;100458.88;1719425;80;21119;-87
2021/07/17 01:25:26;;;;;;;20.68;17.50;;;;;;;22.49;100.00;100458.56;1721395;81;21091;-87
2021/07/17 01:27:57;;;;;;;39.10;19.70;;;;;;;22.47;100.00;100463.77;1748147;80;21087;-92
2021/07/17 01:30:27;;;;;;;43.95;19.27;;;;;;;22.44;100.00;100461.48;1747284;80;21009;-89
2021/07/17 01:32:55;;;;;;;24.95;17.10;;;;;;;22.42;100.00;100458.20;1745616;80;21091;-89
2021/07/17 01:35:22;;;;;;;41.45;20.05;;;;;;;22.40;100.00;100454.44;1729313;81;21024;-90
2021/07/17 01:37:49;;;;;;;36.35;18.55;;;;;;;22.38;100.00;100455.11;1721542;81;21072;-87
2021/07/17 01:40:21;;;;;;;34.73;19.27;;;;;;;22.37;100.00;100458.28;1720865;80;20964;-93
2021/07/17 01:42:57;;;;;;;31.17;19.23;;;;;;;22.38;100.00;100457.75;1750508;80;21099;-90
2021/07/17 01:45:32;;;;;;;22.58;20.15;;;;;;;22.36;100.00;100459.78;1725668;81;21111;-87
2021/07/17 01:47:59;;;;;;;22.58;20.48;;;;;;;22.35;100.00;100455.00;1681849;83;21140;-90
2021/07/17 01:50:32;;;;;;;22.07;19.77;;;;;;;22.31;100.00;100456.91;1688988;82;21825;-86
2021/07/17 01:53:00;;;;;;;22.45;20.02;;;;;;;22.25;100.00;100459.03;1682175;82;21565;-88
2021/07/17 01:55:28;;;;;;;22.22;19.92;;;;;;;22.19;100.00;100461.43;1715326;80;21603;-88
2021/07/17 01:57:57;;;;;;;22.82;20.43;;;;;;;22.16;100.00;100455.70;1700557;82;21078;-91
2021/07/17 02:00:25;;;;;;;23.10;20.62;;;;;;;22.14;100.00;100456.42;1754627;79;21138;-89
2021/07/17 02:02:53;;;;;;;22.20;20.00;;;;;;;22.10;100.00;100460.47;1746569;80;22165;-87
2021/07/17 02:05:23;;;;;;;21.90;19.75;;;;;;;22.06;100.00;100461.36;1747657;80;22110;-87
2021/07/17 02:07:52;;;;;;;25.10;22.37;;;;;;;22.04;100.00;100460.25;1774434;79;21123;-89
2021/07/17 02:10:31;;;;;;;22.50;20.35;;;;;;;22.06;100.00;100458.22;1777450;79;20958;-87
2021/07/17 02:13:08;;;;;;;21.30;19.12;;;;;;;22.04;100.00;100461.57;1777977;79;21080;-88
2021/07/17 02:15:53;;;;;;;21.20;17.60;;;;;;;21.99;100.00;100458.66;1778678;79;21977;-89
2021/07/17 02:18:31;;;;;;;22.35;18.32;;;;;;;;;;1778216;79;21084;-90
2021/07/17 02:20:57;;;;;;;20.75;18.60;;;;;;;21.90;100.00;100450.58;1753403;80;21115;-87
2021/07/17 02:23:24;;;;;;;20.10;17.95;;;;;;;21.90;100.00;100455.88;1753201;80;22540;-87
2021/07/17 02:25:51;;;;;;;20.62;18.55;;;;;;;21.88;100.00;100452.08;1746511;80;21013;-90
2021/07/17 02:28:18;;;;;;;21.57;18.80;;;;;;;21.88;100.00;100452.08;1753831;80;21175;-88
2021/07/17 02:30:46;;;;;;;20.48;17.95;;;;;;;21.91;100.00;100461.50;1746364;80;21085;-89
2021/07/17 02:33:13;;;;;;;23.35;20.02;;;;;;;21.95;100.00;100464.06;1746660;80;21048;-91
2021/07/17 02:35:43;;;;;;;21.65;19.12;;;;;;;21.97;100.00;100459.39;1775866;80;21428;-91
2021/07/17 02:38:10;;;;;;;23.25;21.00;;;;;;;21.99;100.00;100465.30;1752483;79;21079;-90
2021/07/17 02:40:37;;;;;;;22.32;20.02;;;;;;;22.01;100.00;100473.88;1777681;79;21076;-89
2021/07/17 02:43:05;;;;;;;22.40;20.08;;;;;;;21.99;100.00;100470.59;1753102;80;21416;-90
2021/07/17 02:45:32;;;;;;;22.13;20.20;;;;;;;21.92;100.00;100471.58;1753848;80;21072;-88
2021/07/17 02:48:01;;;;;;;22.17;19.73;;;;;;;21.87;100.00;100475.61;1777648;80;21212;-88
2021/07/17 02:50:28;;;;;;;22.65;20.30;;;;;;;21.86;100.00;100483.77;1754882;80;21100;-87
2021/07/17 02:52:56;;;;;;;25.97;21.35;;;;;;;21.81;100.00;100480.89;1753100;80;21078;-86
2021/07/17 02:55:24;;;;;;;27.75;21.70;;;;;;;21.79;100.00;100467.84;1755084;80;21091;-89
2021/07/17 02:57:51;;;;;;;29.87;22.42;;;;;;;21.82;100.00;100470.09;1753524;80;21571;-89
2021/07/17 03:00:22;;;;;;;32.55;25.08;;;;;;;21.86;100.00;100466.55;1775314;80;21044;-90
2021/07/17 03:02:49;;;;;;;35.23;25.00;;;;;;;21.89;100.00;100466.97;1762781;79;21132;-89
2021/07/17 03:05:17;;;;;;;31.75;25.30;;;;;;;21.99;100.00;100473.24;1729843;81;21083;-87
2021/07/17 03:07:44;;;;;;;37.63;26.52;;;;;;;22.12;100.00;100475.68;1745812;80;21081;-88
2021/07/17 03:10:11;;;;;;;36.93;26.05;;;;;;;22.19;100.00;100473.36;1743932;80;21391;-90
2021/07/17 03:12:44;;;;;;;32.13;26.00;;;;;;;22.31;100.00;100478.13;1745353;80;21096;-91
2021/07/17 03:15:25;;;;;;;31.25;26.60;;;;;;;22.39;100.00;100476.67;1644349;85;21088;-89
2021/07/17 03:17:56;;;;;;;31.30;28.15;;;;;;;22.49;100.00;100474.97;1700352;82;21785;-89
2021/07/17 03:20:25;;;;;;;36.50;28.95;;;;;;;22.58;100.00;100470.33;1713043;80;21060;-92
2021/07/17 03:22:53;;;;;;;32.03;28.40;;;;;;;22.63;100.00;100474.03;1746579;80;21048;-89
2021/07/17 03:25:28;;;;;;;33.48;29.42;;;;;;;22.65;100.00;100470.64;1726256;81;21048;-91
2021/07/17 03:27:51;;;;;;;32.63;29.18;;;;;;;22.68;100.00;100466.77;1725381;81;24146;-88
2021/07/17 03:30:18;;;;;;;32.53;29.10;;;;;;;22.69;100.00;100462.61;1747040;80;21167;-88
2021/07/17 03:32:47;;;;;;;33.73;28.70;;;;;;;22.73;100.00;100464.84;1729157;80;21091;-89
2021/07/17 03:35:14;;;;;;;32.23;29.00;;;;;;;22.74;100.00;100467.81;1727387;80;21076;-88
2021/07/17 03:37:45;;;;;;;32.95;29.45;;;;;;;22.78;100.00;100467.22;1734566;81;21114;-88
2021/07/17 03:40:18;;;;;;;32.63;29.42;;;;;;;22.82;100.00;100472.45;1720231;80;21558;-89
2021/07/17 03:42:45;;;;;;;36.05;31.27;;;;;;;22.85;100.00;100460.61;1720307;81;21096;-90
2021/07/17 03:45:15;;;;;;;35.63;31.00;;;;;;;22.90;100.00;100468.78;1701226;80;21118;-89
2021/07/17 03:47:45;;;;;;;35.23;30.97;;;;;;;22.96;100.00;100469.30;1717051;81;21055;-87
2021/07/17 03:50:16;;;;;;;34.25;30.95;;;;;;;23.02;100.00;100462.90;1749385;80;21077;-88
2021/07/17 03:52:45;;;;;;;35.08;30.10;;;;;;;23.07;100.00;100467.08;1736439;80;21159;-89
2021/07/17 03:55:18;;;;;;;33.45;30.12;;;;;;;23.10;100.00;100464.84;1746568;80;21049;-87
2021/07/17 03:57:47;;;;;;;31.90;28.57;;;;;;;23.13;100.00;100459.62;1757164;80;21536;-88
2021/07/17 04:00:18;;;;;;;32.53;29.35;;;;;;;23.18;100.00;100463.87;1768023;80;21007;-89
2021/07/17 04:02:45;;;;;;;32.63;29.23;;;;;;;23.25;100.00;100467.84;1741464;79;21124;-87
2021/07/17 04:05:16;;;;;;;33.63;30.23;;;;;;;23.27;100.00;100463.98;1757300;80;21062;-86
2021/07/17 04:07:57;;;;;;;;;;;;;;;;;;;;;
2021/07/17 04:10:18;;;;;;;;;;;;;;;23.34;100.00;100467.16;1681250;83;21120;-88
2021/07/17 04:12:47;;;;;;;32.38;28.95;;;;;;;23.39;100.00;100463.37;1749921;79;20185;-88
2021/07/17 04:15:18;;;;;;;33.38;29.85;;;;;;;23.43;100.00;100466.74;1777112;79;21143;-91
2021/07/17 04:17:45;;;;;;;33.13;29.67;;;;;;;23.52;100.00;100467.34;1774244;79;21444;-89
2021/07/17 04:20:56;;;;;;;;;;;;;;;;;;;;;
2021/07/17 04:24:07;;;;;;;;;;;;;;;;;;;;;
2021/07/17 04:26:54;;;;;;;26.82;24.07;;;;;;;23.89;100.00;100458.43;1633574;84;21565;-93
2021/07/17 04:29:26;;;;;;;26.68;24.07;;;;;;;24.06;100.00;100466.00;1678796;83;21733;-94
2021/07/17 04:31:56;;;;;;;26.93;24.32;;;;;;;24.17;100.00;100460.02;1680171;80;21110;-92
2021/07/17 04:34:33;;;;;;;26.45;23.85;;;;;;;24.28;100.00;100460.41;1774513;79;22844;-92
2021/07/17 04:37:00;;;;;;;25.70;23.38;;;;;;;24.34;100.00;100456.89;1751184;79;21080;-88
2021/07/17 04:39:28;;;;;;;33.25;23.38;;;;;;;24.42;100.00;100452.66;1719194;81;21104;-91
2021/07/17 04:45:40;;;;;;;21.85;19.57;;;;;;;24.61;100.00;100457.59;1570094;85;21097;-93
2021/07/17 04:48:18;;;;;;;23.85;21.42;;;;;;;24.73;100.00;100453.77;1519587;92;21498;-88
2021/07/17 04:55:30;;;;;;;21.77;19.48;;;;;;;24.97;100.00;100448.72;1701001;82;21078;-93
2021/07/17 04:59:16;;;;;;;21.40;19.30;;;;;;;25.08;100.00;100445.38;1641282;84;21668;-94
2021/07/17 05:02:09;;;;;;;;;;;;;;;25.19;100.00;100435.86;1633227;84;21797;-92
2021/07/17 05:04:59;;;;;;;;;;;;;;;;;;;;;
2021/07/17 05:19:59;;;;;;;22.77;17.85;;;;;;;25.55;100.00;100429.55;1691456;84;21588;-93
2021/07/17 06:03:53;;;;;;;17.60;16.00;;;;;;;26.59;100.00;100415.45;1741346;81;21599;-91
2021/07/17 15:29:57;;;;;;;;;;;;;;;;;;;;;
2021/07/17 15:33:00;;;;;;;14.33;10.28;;;;;;;31.47;80.75;100170.08;1527528;91;21165;-89
2021/07/17 15:35:34;;;;;;;20.12;11.25;;;;;;;31.38;81.70;100168.19;1528439;93;21619;-92
2021/07/17 15:38:01;;;;;;;16.20;10.72;;;;;;;31.27;82.66;100167.35;1630401;83;21148;-89
2021/07/17 15:40:32;;;;;;;16.70;10.43;;;;;;;31.18;83.17;100170.28;1701206;81;21586;-88
2021/07/17 15:42:59;;;;;;;12.00;10.45;;;;;;;31.13;84.45;100178.59;1695154;82;21054;-88
2021/07/17 15:45:27;;;;;;;13.32;10.80;;;;;;;31.12;87.51;100179.68;1712940;81;21053;-90
2021/07/17 15:47:57;;;;;;;21.73;13.25;;;;;;;31.12;90.06;100185.58;1719786;82;21069;-88
2021/07/17 15:50:29;;;;;;;44.33;28.65;;;;;;;31.13;91.19;100184.52;1724037;82;21062;-89
2021/07/17 15:52:58;;;;;;;45.25;30.77;;;;;;;31.16;91.99;100185.34;1727415;82;21007;-90
2021/07/17 15:55:25;;;;;;;33.98;24.43;;;;;;;31.19;93.11;100190.17;1688120;82;21062;-92
2021/07/17 15:57:55;;;;;;;25.43;17.25;;;;;;;31.23;92.74;100190.45;1699445;82;21118;-89
2021/07/17 16:00:21;;;;;;;15.55;12.73;;;;;;;31.27;93.10;100197.73;1694023;83;21022;-90
2021/07/17 16:02:48;;;;;;;14.50;12.30;;;;;;;31.34;92.99;100200.17;1666336;85;21030;-89
2021/07/17 16:05:24;;;;;;;14.83;11.45;;;;;;;31.37;90.73;100198.28;1666229;85;21491;-87
2021/07/17 16:07:48;;;;;;;17.82;14.10;;;;;;;31.39;94.28;100200.19;1634707;85;21214;-88
2021/07/17 16:10:15;;;;;;;25.85;19.40;;;;;;;31.38;93.02;100203.14;1664813;84;21889;-90
2021/07/17 16:12:48;;;;;;;36.33;19.17;;;;;;;31.30;93.91;100196.38;1685754;83;21602;-89
2021/07/17 16:15:14;;;;;;;28.17;19.27;;;;;;;31.24;96.35;100202.30;1716245;83;21497;-91
2021/07/17 16:17:42;;;;;;;66.50;27.62;;;;;;;31.16;98.71;100209.53;1654207;83;21051;-89
2021/07/17 16:20:12;;;;;;;127.27;35.65;;;;;;;31.09;100.00;100212.45;1682300;82;21517;-87
2021/07/17 16:22:41;;;;;;;61.73;23.35;;;;;;;31.00;100.00;100209.45;1690094;82;21217;-89
2021/07/17 16:25:11;;;;;;;46.70;22.93;;;;;;;30.89;100.00;100208.31;1688573;82;21217;-90
2021/07/17 16:27:46;;;;;;;66.17;24.67;;;;;;;30.78;100.00;100206.91;1696866;82;21027;-91
2021/07/17 16:30:14;;;;;;;35.17;18.73;;;;;;;30.69;100.00;100206.58;1668777;83;21452;-88
2021/07/17 16:32:45;;;;;;;31.68;17.23;;;;;;;30.59;100.00;100202.50;1686200;83;21040;-89
2021/07/17 16:35:16;;;;;;;33.85;16.00;;;;;;;30.47;100.00;100205.88;1665959;83;22112;-89
2021/07/17 16:37:49;;;;;;;26.48;16.52;;;;;;;30.34;100.00;100197.72;1674440;83;21068;-87
2021/07/17 16:40:31;;;;;;;32.83;18.30;;;;;;;30.21;100.00;100203.82;1674934;83;21096;-87
2021/07/17 16:43:01;;;;;;;34.10;15.60;;;;;;;30.09;100.00;100201.83;1594146;85;21061;-86
2021/07/17 16:45:28;;;;;;;27.42;17.02;;;;;;;30.00;100.00;100206.07;1674463;84;20964;-88
2021/07/17 16:47:56;;;;;;;34.15;16.12;;;;;;;29.90;100.00;100205.39;1636406;84;21128;-85
2021/07/17 16:50:24;;;;;;;51.98;18.25;;;;;;;29.81;100.00;100213.63;1642479;86;20991;-88
2021/07/17 16:52:51;;;;;;;31.70;17.17;;;;;;;29.70;100.00;100217.56;1664168;83;21114;-88
2021/07/17 16:55:18;;;;;;;42.83;17.32;;;;;;;29.61;100.00;100212.89;1679331;82;21034;-86
2021/07/17 16:57:46;;;;;;;46.37;17.70;;;;;;;29.51;100.00;100209.57;1661019;85;21581;-84
2021/07/17 17:00:15;;;;;;;46.10;17.12;;;;;;;29.45;100.00;100214.06;1646959;85;21181;-85
2021/07/17 17:02:42;;;;;;;51.00;17.67;;;;;;;29.41;100.00;100219.66;1682489;83;21129;-87
2021/07/17 17:05:12;;;;;;;42.27;18.48;;;;;;;29.37;100.00;100214.50;1666784;85;21133;-84
2021/07/17 17:07:39;;;;;;;43.90;18.17;;;;;;;29.33;100.00;100210.72;1647475;85;21024;-85
2021/07/17 17:10:08;;;;;;;36.93;17.65;;;;;;;29.25;100.00;100215.44;1668005;85;21616;-86
2021/07/17 17:12:36;;;;;;;30.72;17.57;;;;;;;29.11;100.00;100214.98;1662501;83;21171;-86
2021/07/17 17:15:07;;;;;;;31.40;16.10;;;;;;;28.91;100.00;100214.19;1677129;84;20950;-90
2021/07/17 17:17:34;;;;;;;32.58;16.80;;;;;;;28.70;100.00;100223.02;1645134;84;21605;-85
2021/07/17 17:20:04;;;;;;;36.85;17.62;;;;;;;28.48;100.00;100216.51;1642264;85;21465;-87
2021/07/17 17:22:31;;;;;;;48.00;17.90;;;;;;;28.30;100.00;100222.09;1663362;83;21073;-89
2021/07/17 17:25:03;;;;;;;36.77;17.35;;;;;;;28.17;100.00;100220.55;1661663;83;21497;-90
2021/07/17 17:27:28;;;;;;;80.57;20.80;;;;;;;28.07;100.00;100215.84;1676540;83;21609;-85
2021/07/17 17:29:55;;;;;;;56.33;18.50;;;;;;;27.95;100.00;100213.20;1712001;81;21021;-86
2021/07/17 17:32:22;;;;;;;41.35;18.60;;;;;;;27.86;100.00;100213.30;1702147;81;21556;-87
2021/07/17 17:34:49;;;;;;;49.48;18.50;;;;;;;27.78;100.00;100216.37;1708432;82;21508;-90
2021/07/17 17:37:16;;;;;;;41.28;18.17;;;;;;;27.72;100.00;100207.46;1708666;82;21542;-89
2021/07/17 17:39:46;;;;;;;25.10;17.17;;;;;;;27.73;100.00;100214.95;1713187;81;21032;-91
2021/07/17 17:42:18;;;;;;;36.30;18.23;;;;;;;27.74;100.00;100216.58;1702652;82;21085;-89
2021/07/17 17:44:48;;;;;;;37.20;18.52;;;;;;;27.71;100.00;100217.88;1696772;81;21414;-88
2021/07/17 17:47:19;;;;;;;40.50;18.57;;;;;;;27.69;100.00;100219.97;1693168;83;21627;-87
2021/07/17 17:49:47;;;;;;;36.28;18.23;;;;;;;27.65;100.00;100212.95;1722383;82;21152;-85
2021/07/17 17:52:15;;;;;;;30.17;17.87;;;;;;;27.62;100.00;100212.61;1673661;83;21630;-85
2021/07/17 17:54:45;;;;;;;26.52;16.73;;;;;;;27.58;100.00;100216.30;1701204;84;21035;-88
2021/07/17 17:57:16;;;;;;;44.10;17.48;;;;;;;27.52;100.00;100220.72;1708966;81;21098;-89
2021/07/17 17:59:46;;;;;;;28.17;17.05;;;;;;;27.48;100.00;100220.09;1680026;84;21597;-87
2021/07/17 18:02:13;;;;;;;29.52;16.32;;;;;;;27.42;100.00;100221.85;1679186;84;21986;-87
2021/07/17 18:04:41;;;;;;;28.50;18.05;;;;;;;27.33;100.00;100217.89;1679580;84;22005;-87
2021/07/17 18:07:12;;;;;;;32.00;17.00;;;;;;;27.28;100.00;100211.91;1650577;84;21086;-89
2021/07/17 18:09:37;;;;;;;32.50;17.15;;;;;;;27.28;100.00;100211.12;1654941;85;21079;-87
2021/07/17 18:12:09;;;;;;;25.60;16.95;;;;;;;27.26;100.00;100212.70;1712748;83;21077;-89
2021/07/17 18:14:38;;;;;;;37.33;17.23;;;;;;;27.24;100.00;100212.91;1729488;81;21022;-87
2021/07/17 18:17:10;;;;;;;30.72;17.60;;;;;;;27.21;100.00;100215.25;1709668;83;21082;-87
2021/07/17 18:19:38;;;;;;;29.60;18.27;;;;;;;27.17;100.00;100220.78;1644486;84;21070;-89
2021/07/17 18:22:07;;;;;;;32.00;17.90;;;;;;;27.11;100.00;100212.39;1651046;83;20964;-89
2021/07/17 18:24:37;;;;;;;26.82;16.17;;;;;;;27.04;100.00;100216.51;1646323;85;21607;-87
2021/07/17 18:27:07;;;;;;;25.48;17.02;;;;;;;26.97;100.00;100219.30;1644473;84;21127;-87
2021/07/17 18:29:34;;;;;;;27.90;16.55;;;;;;;26.91;100.00;100224.24;1638780;85;21109;-88
2021/07/17 18:32:02;;;;;;;26.40;16.23;;;;;;;26.85;100.00;100222.52;1700987;83;21074;-87
2021/07/17 18:34:30;;;;;;;25.35;17.10;;;;;;;26.80;100.00;100219.73;1695526;83;21573;-86
2021/07/17 18:36:57;;;;;;;35.90;18.25;;;;;;;26.74;100.00;100226.25;1686087;83;21070;-86
2021/07/17 18:39:24;;;;;;;33.73;17.48;;;;;;;26.69;100.00;100222.64;1710928;83;21099;-87
2021/07/17 18:41:55;;;;;;;37.50;18.15;;;;;;;26.64;100.00;100223.34;1680921;82;21870;-90
2021/07/17 18:44:21;;;;;;;36.08;18.37;;;;;;;26.58;100.00;100217.09;1671392;83;21576;-89
2021/07/17 18:46:48;;;;;;;29.72;18.05;;;;;;;26.54;100.00;100217.78;1667574;83;21081;-86
2021/07/17 18:49:17;;;;;;;29.85;19.62;;;;;;;26.50;100.00;100221.94;1649766;84;21039;-87
2021/07/17 18:51:44;;;;;;;33.33;20.85;;;;;;;26.46;100.00;100220.26;1672745;83;21216;-87
2021/07/17 18:54:11;;;;;;;28.57;22.00;;;;;;;26.43;100.00;100216.20;1676867;83;21134;-88
2021/07/17 18:56:39;;;;;;;33.65;22.65;;;;;;;26.42;100.00;100216.44;1705059;81;21090;-86
2021/07/17 18:59:06;;;;;;;28.95;22.73;;;;;;;26.42;100.00;100211.90;1706962;82;21079;-90
2021/07/17 19:01:33;;;;;;;33.42;22.77;;;;;;;26.41;100.00;100211.60;1742502;81;21031;-86
2021/07/17 19:04:00;;;;;;;30.02;21.00;;;;;;;26.42;100.00;100213.23;1711789;82;21026;-86
2021/07/17 19:06:27;;;;;;;29.20;21.80;;;;;;;26.41;100.00;100216.94;1712108;81;21061;-87
2021/07/17 19:08:54;;;;;;;26.07;22.48;;;;;;;26.39;100.00;100201.70;1650282;83;21466;-88
2021/07/17 19:11:22;;;;;;;28.32;20.97;;;;;;;26.38;100.00;100200.58;1674204;83;21085;-88
2021/07/17 19:13:49;;;;;;;27.98;19.62;;;;;;;26.37;100.00;100201.62;1676487;83;21030;-86
2021/07/17 19:16:16;;;;;;;28.23;20.75;;;;;;;26.34;100.00;100204.23;1637431;84;21802;-86
2021/07/17 19:18:44;;;;;;;26.65;21.15;;;;;;;26.30;100.00;100205.22;1668561;83;21591;-84
2021/07/17 19:21:11;;;;;;;26.77;21.52;;;;;;;26.28;100.00;100199.82;1660643;83;21128;-87
2021/07/17 19:23:38;;;;;;;29.45;20.23;;;;;;;26.25;100.00;100201.09;1656172;83;21158;-87
2021/07/17 19:26:05;;;;;;;30.52;20.92;;;;;;;26.24;100.00;100194.67;1674037;84;21105;-86
2021/07/17 19:28:32;;;;;;;29.20;21.07;;;;;;;26.25;100.00;100192.27;1672547;83;21043;-87
2021/07/17 19:31:00;;;;;;;27.70;20.25;;;;;;;26.25;100.00;100201.09;1656078;85;21612;-86
2021/07/17 19:33:27;;;;;;;35.20;20.88;;;;;;;26.23;100.00;100194.38;1655684;85;21458;-88
2021/07/17 19:35:54;;;;;;;32.15;19.85;;;;;;;26.23;100.00;100187.70;1652630;84;21094;-84
2021/07/17 19:38:21;;;;;;;27.17;20.15;;;;;;;26.24;100.00;100185.33;1671239;84;21070;-84
2021/07/17 19:40:50;;;;;;;29.98;20.68;;;;;;;26.22;100.00;100182.87;1672926;83;21510;-86
2021/07/17 19:43:18;;;;;;;28.60;19.95;;;;;;;26.20;100.00;100182.81;1653002;85;21044;-87
2021/07/17 19:45:45;;;;;;;31.20;20.43;;;;;;;26.17;100.00;100178.75;1667553;83;21361;-87
2021/07/17 19:48:12;;;;;;;24.30;20.75;;;;;;;26.13;100.00;100183.73;1687447;82;21248;-87
2021/07/17 19:50:39;;;;;;;27.35;19.48;;;;;;;26.06;100.00;100187.00;1677052;83;21235;-84
2021/07/17 19:53:07;;;;;;;23.35;19.52;;;;;;;26.01;100.00;100184.72;1672439;83;21167;-87
2021/07/17 19:55:35;;;;;;;23.12;19.57;;;;;;;25.99;100.00;100185.76;1693763;83;21064;-87
2021/07/17 19:58:02;;;;;;;27.82;20.12;;;;;;;25.97;100.00;100187.03;1698229;83;21739;-91
2021/07/17 20:00:29;;;;;;;24.18;20.62;;;;;;;25.96;100.00;100190.73;1689451;83;21030;-88
2021/07/17 20:02:58;;;;;;;31.00;20.85;;;;;;;25.93;100.00;100187.18;1694547;83;21112;-88
2021/07/17 20:05:25;;;;;;;31.42;20.32;;;;;;;25.89;100.00;100188.69;1709372;82;21067;-89
2021/07/17 20:07:53;;;;;;;29.85;19.30;;;;;;;25.86;100.00;100188.63;1729627;81;21742;-88
2021/07/17 20:10:21;;;;;;;25.50;18.65;;;;;;;25.88;100.00;100191.06;1714097;82;21627;-86
2021/07/17 20:12:49;;;;;;;37.50;21.57;;;;;;;25.86;100.00;100193.13;1690806;82;21120;-88
2021/07/17 20:15:18;;;;;;;38.38;25.08;;;;;;;25.80;100.00;100196.18;1727749;81;21014;-87
2021/07/17 20:17:46;;;;;;;53.38;24.67;;;;;;;25.74;100.00;100191.26;1725743;81;21149;-87
2021/07/17 20:20:15;;;;;;;38.15;23.80;;;;;;;25.69;100.00;100194.30;1706108;82;21063;-85
2021/07/17 20:22:44;;;;;;;46.08;22.50;;;;;;;25.64;100.00;100192.31;1724480;81;21050;-90
2021/07/17 20:25:12;;;;;;;37.70;23.35;;;;;;;25.61;100.00;100194.91;1724743;82;21044;-87
2021/07/17 20:27:40;;;;;;;34.58;24.00;;;;;;;25.60;100.00;100189.81;1724840;82;21059;-84
2021/07/17 20:30:11;;;;;;;37.60;23.18;;;;;;;25.59;100.00;100194.31;1705741;82;21451;-85
2021/07/17 20:32:42;;;;;;;45.15;25.35;;;;;;;25.59;100.00;100196.98;1733412;82;20992;-87
2021/07/17 20:35:11;;;;;;;35.00;24.25;;;;;;;25.60;100.00;100199.95;1711237;82;22829;-85
2021/07/17 20:37:39;;;;;;;37.50;23.85;;;;;;;25.59;100.00;100195.65;1710095;81;21078;-86
2021/07/17 20:40:10;;;;;;;43.20;24.32;;;;;;;25.58;100.00;100200.68;1703443;82;21053;-86
2021/07/17 20:42:38;;;;;;;31.05;23.27;;;;;;;25.56;100.00;100194.75;1728965;82;22663;-86
2021/07/17 20:45:06;;;;;;;33.60;23.47;;;;;;;25.53;100.00;100193.89;1720270;82;21453;-85
2021/07/17 20:47:33;;;;;;;33.10;24.37;;;;;;;25.53;100.00;100195.73;1690251;81;21203;-87
2021/07/17 20:50:00;;;;;;;32.20;24.43;;;;;;;25.50;100.00;100191.66;1673050;81;21053;-85
2021/07/17 20:52:27;;;;;;;32.48;22.87;;;;;;;25.48;100.00;100193.23;1704930;83;21053;-87
2021/07/17 20:54:55;;;;;;;31.80;23.35;;;;;;;25.45;100.00;100195.00;1693173;81;20990;-85
2021/07/17 20:57:22;;;;;;;27.13;22.67;;;;;;;25.42;100.00;100194.13;1674662;83;21173;-84
2021/07/17 20:59:49;;;;;;;31.30;23.57;;;;;;;25.40;100.00;100197.53;1671049;84;21056;-85
2021/07/17 21:02:16;;;;;;;28.80;23.27;;;;;;;25.38;100.00;100192.11;1655822;83;21455;-85
2021/07/17 21:04:43;;;;;;;29.48;23.45;;;;;;;25.34;100.00;100192.55;1651268;84;21143;-85
2021/07/17 21:07:10;;;;;;;35.03;22.67;;;;;;;25.32;100.00;100193.81;1658662;84;21148;-84
2021/07/17 21:09:37;;;;;;;33.00;22.70;;;;;;;25.25;100.00;100199.20;1657287;85;21098;-87
2021/07/17 21:12:06;;;;;;;27.27;22.02;;;;;;;25.19;100.00;100198.77;1699973;83;21019;-86
2021/07/17 21:14:32;;;;;;;27.32;22.60;;;;;;;25.11;100.00;100190.58;1666018;84;21063;-85
2021/07/17 21:16:59;;;;;;;29.37;22.07;;;;;;;25.04;100.00;100196.47;1695250;83;21072;-90
2021/07/17 21:19:27;;;;;;;28.05;22.30;;;;;;;25.02;100.00;100199.89;1653284;84;21080;-90
2021/07/17 21:21:54;;;;;;;28.52;21.73;;;;;;;24.98;100.00;100194.70;1658837;85;21040;-87
2021/07/17 21:24:21;;;;;;;31.27;22.22;;;;;;;24.97;100.00;100201.05;1690317;83;21018;-87
2021/07/17 21:26:48;;;;;;;34.00;22.32;;;;;;;24.95;100.00;100189.83;1667994;85;21598;-88
2021/07/17 21:29:15;;;;;;;23.83;20.68;;;;;;;24.94;100.00;100193.53;1675181;84;21347;-86
2021/07/17 21:31:42;;;;;;;24.05;20.95;;;;;;;24.89;100.00;100184.87;1670277;84;21097;-92
2021/07/17 21:34:09;;;;;;;29.57;22.10;;;;;;;24.88;100.00;100193.88;1682970;83;21589;-87
2021/07/17 21:36:38;;;;;;;26.07;22.32;;;;;;;24.86;100.00;100199.44;1695295;83;21590;-88
2021/07/17 21:39:06;;;;;;;27.82;22.07;;;;;;;24.87;100.00;100201.57;1701354;84;21141;-85
2021/07/17 21:41:33;;;;;;;23.87;21.50;;;;;;;24.84;100.00;100200.66;1691272;83;21564;-85
2021/07/17 21:44:00;;;;;;;25.25;22.77;;;;;;;24.81;100.00;100202.45;1661739;83;21145;-87
2021/07/17 21:46:27;;;;;;;25.20;22.48;;;;;;;24.82;100.00;100211.55;1683977;83;20996;-87